sensor_id;sensor_type;location;lat;lon;timestamp;P1;durP1;ratioP1;P2;durP2;ratioP2
41719;SDS011;27405;53.316;-6.294;2022-08-21T00:01:18;16.13;;;3.08;;
41719;SDS011;27405;53.316;-6.294;2022-08-21T00:03:46;16.40;;;3.15;;
41719;SDS011;27405;53.316;-6.294;2022-08-21T00:06:13;17.60;;;3.30;;
41719;SDS011;27405;53.316;-6.294;2022-08-21T00:08:40;16.52;;;3.10;;
41719;SDS011;27405;53.316;-6.294;2022-08-21T00:11:06;16.80;;;3.13;;
41719;SDS011;27405;53.316;-6.294;2022-08-21T00:13:33;16.17;;;2.83;;
41719;SDS011;27405;53.316;-6.294;2022-08-21T00:16:00;22.40;;;3.85;;
41719;SDS011;27405;53.316;-6.294;2022-08-21T00:18:27;14.82;;;2.95;;
41719;SDS011;27405;53.316;-6.294;2022-08-21T00:20:53;19.70;;;3.28;;
41719;SDS011;27405;53.316;-6.294;2022-08-21T00:23:20;15.63;;;3.05;;
41719;SDS011;27405;53.316;-6.294;2022-08-21T00:25:46;11.88;;;2.60;;
41719;SDS011;27405;53.316;-6.294;2022-08-21T00:28:12;16.10;;;2.80;;
41719;SDS011;27405;53.316;-6.294;2022-08-21T00:30:39;16.95;;;3.17;;
41719;SDS011;27405;53.316;-6.294;2022-08-21T00:33:06;21.50;;;4.25;;
41719;SDS011;27405;53.316;-6.294;2022-08-21T00:35:35;16.25;;;3.17;;
41719;SDS011;27405;53.316;-6.294;2022-08-21T00:38:03;17.95;;;3.17;;
41719;SDS011;27405;53.316;-6.294;2022-08-21T00:40:38;16.37;;;3.20;;
41719;SDS011;27405;53.316;-6.294;2022-08-21T00:43:12;14.02;;;2.45;;
41719;SDS011;27405;53.316;-6.294;2022-08-21T00:45:40;15.70;;;3.17;;
41719;SDS011;27405;53.316;-6.294;2022-08-21T00:48:07;19.02;;;3.15;;
41719;SDS011;27405;53.316;-6.294;2022-08-21T00:50:36;14.80;;;3.13;;
41719;SDS011;27405;53.316;-6.294;2022-08-21T00:53:06;20.88;;;3.60;;
41719;SDS011;27405;53.316;-6.294;2022-08-21T00:55:33;17.42;;;3.75;;
41719;SDS011;27405;53.316;-6.294;2022-08-21T00:58:01;14.63;;;2.70;;
41719;SDS011;27405;53.316;-6.294;2022-08-21T01:00:30;17.10;;;2.75;;
41719;SDS011;27405;53.316;-6.294;2022-08-21T01:02:59;16.67;;;3.25;;
41719;SDS011;27405;53.316;-6.294;2022-08-21T01:05:26;17.02;;;3.05;;
41719;SDS011;27405;53.316;-6.294;2022-08-21T01:07:53;20.55;;;3.83;;
41719;SDS011;27405;53.316;-6.294;2022-08-21T01:10:22;14.65;;;2.55;;
41719;SDS011;27405;53.316;-6.294;2022-08-21T01:12:49;18.67;;;3.17;;
41719;SDS011;27405;53.316;-6.294;2022-08-21T01:15:20;19.60;;;3.03;;
41719;SDS011;27405;53.316;-6.294;2022-08-21T01:17:49;19.80;;;3.30;;
41719;SDS011;27405;53.316;-6.294;2022-08-21T01:20:16;18.98;;;3.38;;
41719;SDS011;27405;53.316;-6.294;2022-08-21T01:22:42;16.25;;;2.97;;
41719;SDS011;27405;53.316;-6.294;2022-08-21T01:25:09;16.17;;;2.85;;
41719;SDS011;27405;53.316;-6.294;2022-08-21T01:27:36;18.63;;;3.25;;
41719;SDS011;27405;53.316;-6.294;2022-08-21T01:30:11;15.75;;;3.10;;
41719;SDS011;27405;53.316;-6.294;2022-08-21T01:32:45;17.63;;;3.53;;
41719;SDS011;27405;53.316;-6.294;2022-08-21T01:35:12;18.98;;;3.17;;
41719;SDS011;27405;53.316;-6.294;2022-08-21T01:37:40;19.42;;;3.22;;
41719;SDS011;27405;53.316;-6.294;2022-08-21T01:40:07;16.83;;;3.10;;
41719;SDS011;27405;53.316;-6.294;2022-08-21T01:42:33;18.05;;;3.00;;
41719;SDS011;27405;53.316;-6.294;2022-08-21T01:44:59;20.02;;;3.00;;
41719;SDS011;27405;53.316;-6.294;2022-08-21T01:47:26;18.27;;;3.45;;
41719;SDS011;27405;53.316;-6.294;2022-08-21T01:49:52;23.48;;;3.25;;
41719;SDS011;27405;53.316;-6.294;2022-08-21T01:52:18;18.55;;;3.03;;
41719;SDS011;27405;53.316;-6.294;2022-08-21T01:54:44;21.50;;;3.35;;
41719;SDS011;27405;53.316;-6.294;2022-08-21T01:57:10;14.23;;;3.20;;
41719;SDS011;27405;53.316;-6.294;2022-08-21T01:59:37;21.45;;;3.65;;
41719;SDS011;27405;53.316;-6.294;2022-08-21T02:02:04;17.65;;;3.45;;
41719;SDS011;27405;53.316;-6.294;2022-08-21T02:04:31;20.77;;;3.75;;
41719;SDS011;27405;53.316;-6.294;2022-08-21T02:06:59;24.30;;;3.30;;
41719;SDS011;27405;53.316;-6.294;2022-08-21T02:09:27;18.40;;;3.28;;
41719;SDS011;27405;53.316;-6.294;2022-08-21T02:11:53;23.48;;;3.95;;
41719;SDS011;27405;53.316;-6.294;2022-08-21T02:14:20;17.85;;;2.75;;
41719;SDS011;27405;53.316;-6.294;2022-08-21T02:16:46;16.40;;;2.97;;
41719;SDS011;27405;53.316;-6.294;2022-08-21T02:19:14;17.35;;;3.30;;
41719;SDS011;27405;53.316;-6.294;2022-08-21T02:21:41;18.60;;;2.97;;
41719;SDS011;27405;53.316;-6.294;2022-08-21T02:24:09;20.55;;;3.47;;
41719;SDS011;27405;53.316;-6.294;2022-08-21T02:26:38;19.92;;;3.42;;
41719;SDS011;27405;53.316;-6.294;2022-08-21T02:29:05;22.65;;;3.92;;
41719;SDS011;27405;53.316;-6.294;2022-08-21T02:31:31;21.13;;;3.83;;
41719;SDS011;27405;53.316;-6.294;2022-08-21T02:33:57;19.95;;;3.30;;
41719;SDS011;27405;53.316;-6.294;2022-08-21T02:36:25;20.08;;;3.20;;
41719;SDS011;27405;53.316;-6.294;2022-08-21T02:38:52;19.65;;;3.30;;
41719;SDS011;27405;53.316;-6.294;2022-08-21T02:41:19;21.35;;;3.22;;
41719;SDS011;27405;53.316;-6.294;2022-08-21T02:43:46;19.77;;;3.85;;
41719;SDS011;27405;53.316;-6.294;2022-08-21T02:46:14;18.23;;;3.13;;
41719;SDS011;27405;53.316;-6.294;2022-08-21T02:48:41;16.63;;;2.90;;
41719;SDS011;27405;53.316;-6.294;2022-08-21T02:51:09;17.70;;;3.47;;
41719;SDS011;27405;53.316;-6.294;2022-08-21T02:53:38;12.43;;;2.70;;
41719;SDS011;27405;53.316;-6.294;2022-08-21T02:56:05;18.70;;;3.15;;
41719;SDS011;27405;53.316;-6.294;2022-08-21T02:58:35;19.40;;;3.45;;
41719;SDS011;27405;53.316;-6.294;2022-08-21T03:01:06;20.60;;;3.42;;
41719;SDS011;27405;53.316;-6.294;2022-08-21T03:03:39;20.55;;;3.53;;
41719;SDS011;27405;53.316;-6.294;2022-08-21T03:06:08;17.80;;;3.20;;
41719;SDS011;27405;53.316;-6.294;2022-08-21T03:08:36;16.13;;;3.13;;
41719;SDS011;27405;53.316;-6.294;2022-08-21T03:11:02;16.70;;;3.08;;
41719;SDS011;27405;53.316;-6.294;2022-08-21T03:13:29;20.42;;;3.13;;
41719;SDS011;27405;53.316;-6.294;2022-08-21T03:15:55;18.67;;;3.83;;
41719;SDS011;27405;53.316;-6.294;2022-08-21T03:18:21;21.75;;;3.70;;
41719;SDS011;27405;53.316;-6.294;2022-08-21T03:20:48;21.48;;;3.45;;
41719;SDS011;27405;53.316;-6.294;2022-08-21T03:26:36;15.38;;;3.08;;
41719;SDS011;27405;53.316;-6.294;2022-08-21T03:29:02;19.75;;;3.25;;
41719;SDS011;27405;53.316;-6.294;2022-08-21T03:31:29;20.63;;;3.30;;
41719;SDS011;27405;53.316;-6.294;2022-08-21T03:33:57;17.80;;;3.47;;
41719;SDS011;27405;53.316;-6.294;2022-08-21T03:36:23;17.50;;;3.40;;
41719;SDS011;27405;53.316;-6.294;2022-08-21T03:38:49;18.58;;;3.38;;
41719;SDS011;27405;53.316;-6.294;2022-08-21T03:41:15;22.45;;;4.25;;
41719;SDS011;27405;53.316;-6.294;2022-08-21T03:43:41;18.33;;;3.38;;
41719;SDS011;27405;53.316;-6.294;2022-08-21T03:46:07;20.40;;;3.38;;
41719;SDS011;27405;53.316;-6.294;2022-08-21T03:48:35;22.35;;;3.70;;
41719;SDS011;27405;53.316;-6.294;2022-08-21T03:51:02;19.75;;;3.35;;
41719;SDS011;27405;53.316;-6.294;2022-08-21T03:53:28;18.90;;;3.20;;
41719;SDS011;27405;53.316;-6.294;2022-08-21T03:55:55;14.48;;;2.97;;
41719;SDS011;27405;53.316;-6.294;2022-08-21T03:58:23;20.65;;;3.92;;
41719;SDS011;27405;53.316;-6.294;2022-08-21T04:00:52;18.55;;;3.10;;
41719;SDS011;27405;53.316;-6.294;2022-08-21T04:03:20;18.35;;;3.15;;
41719;SDS011;27405;53.316;-6.294;2022-08-21T04:05:46;18.27;;;3.17;;
41719;SDS011;27405;53.316;-6.294;2022-08-21T04:08:13;17.55;;;3.25;;
41719;SDS011;27405;53.316;-6.294;2022-08-21T04:10:40;19.35;;;3.08;;
41719;SDS011;27405;53.316;-6.294;2022-08-21T04:13:07;23.25;;;3.53;;
41719;SDS011;27405;53.316;-6.294;2022-08-21T04:15:34;21.65;;;3.05;;
41719;SDS011;27405;53.316;-6.294;2022-08-21T04:18:01;20.85;;;3.17;;
41719;SDS011;27405;53.316;-6.294;2022-08-21T04:20:28;20.92;;;2.92;;
41719;SDS011;27405;53.316;-6.294;2022-08-21T04:22:54;21.33;;;3.40;;
41719;SDS011;27405;53.316;-6.294;2022-08-21T04:25:22;15.88;;;3.85;;
41719;SDS011;27405;53.316;-6.294;2022-08-21T04:27:50;17.60;;;3.42;;
41719;SDS011;27405;53.316;-6.294;2022-08-21T04:30:17;22.08;;;3.25;;
41719;SDS011;27405;53.316;-6.294;2022-08-21T04:32:47;18.05;;;2.97;;
41719;SDS011;27405;53.316;-6.294;2022-08-21T04:35:16;21.45;;;3.10;;
41719;SDS011;27405;53.316;-6.294;2022-08-21T04:37:43;25.13;;;3.70;;
41719;SDS011;27405;53.316;-6.294;2022-08-21T04:40:10;16.70;;;3.47;;
41719;SDS011;27405;53.316;-6.294;2022-08-21T04:42:42;13.80;;;2.78;;
41719;SDS011;27405;53.316;-6.294;2022-08-21T04:45:17;15.90;;;3.35;;
41719;SDS011;27405;53.316;-6.294;2022-08-21T04:47:55;21.27;;;2.75;;
41719;SDS011;27405;53.316;-6.294;2022-08-21T04:50:24;19.35;;;3.30;;
41719;SDS011;27405;53.316;-6.294;2022-08-21T04:53:02;26.90;;;3.67;;
41719;SDS011;27405;53.316;-6.294;2022-08-21T04:55:33;24.05;;;3.15;;
41719;SDS011;27405;53.316;-6.294;2022-08-21T04:57:59;18.85;;;3.22;;
41719;SDS011;27405;53.316;-6.294;2022-08-21T05:00:29;20.77;;;3.13;;
41719;SDS011;27405;53.316;-6.294;2022-08-21T05:02:56;15.13;;;3.10;;
41719;SDS011;27405;53.316;-6.294;2022-08-21T05:05:24;16.73;;;3.25;;
41719;SDS011;27405;53.316;-6.294;2022-08-21T05:07:52;17.83;;;2.80;;
41719;SDS011;27405;53.316;-6.294;2022-08-21T05:10:18;17.50;;;3.42;;
41719;SDS011;27405;53.316;-6.294;2022-08-21T05:12:45;17.02;;;3.15;;
41719;SDS011;27405;53.316;-6.294;2022-08-21T05:15:11;16.85;;;2.70;;
41719;SDS011;27405;53.316;-6.294;2022-08-21T05:17:38;23.08;;;3.40;;
41719;SDS011;27405;53.316;-6.294;2022-08-21T05:20:05;18.27;;;3.50;;
41719;SDS011;27405;53.316;-6.294;2022-08-21T05:22:31;22.52;;;3.40;;
41719;SDS011;27405;53.316;-6.294;2022-08-21T05:24:57;16.88;;;3.08;;
41719;SDS011;27405;53.316;-6.294;2022-08-21T05:27:23;20.42;;;2.88;;
41719;SDS011;27405;53.316;-6.294;2022-08-21T05:29:49;18.40;;;3.17;;
41719;SDS011;27405;53.316;-6.294;2022-08-21T05:32:15;16.45;;;3.03;;
41719;SDS011;27405;53.316;-6.294;2022-08-21T05:34:42;19.38;;;2.95;;
41719;SDS011;27405;53.316;-6.294;2022-08-21T05:37:10;15.98;;;2.60;;
41719;SDS011;27405;53.316;-6.294;2022-08-21T05:39:37;19.88;;;3.28;;
41719;SDS011;27405;53.316;-6.294;2022-08-21T05:42:03;23.00;;;3.10;;
41719;SDS011;27405;53.316;-6.294;2022-08-21T05:44:29;24.33;;;3.47;;
41719;SDS011;27405;53.316;-6.294;2022-08-21T05:47:01;16.50;;;3.15;;
41719;SDS011;27405;53.316;-6.294;2022-08-21T05:49:28;19.25;;;2.63;;
41719;SDS011;27405;53.316;-6.294;2022-08-21T05:51:54;20.58;;;2.83;;
41719;SDS011;27405;53.316;-6.294;2022-08-21T05:54:20;17.25;;;2.95;;
41719;SDS011;27405;53.316;-6.294;2022-08-21T05:56:46;17.73;;;2.72;;
41719;SDS011;27405;53.316;-6.294;2022-08-21T05:59:12;16.80;;;3.13;;
41719;SDS011;27405;53.316;-6.294;2022-08-21T06:01:38;26.83;;;3.35;;
41719;SDS011;27405;53.316;-6.294;2022-08-21T06:07:27;16.45;;;3.15;;
41719;SDS011;27405;53.316;-6.294;2022-08-21T06:09:54;15.88;;;2.95;;
41719;SDS011;27405;53.316;-6.294;2022-08-21T06:12:19;19.15;;;2.90;;
41719;SDS011;27405;53.316;-6.294;2022-08-21T06:14:46;15.35;;;3.20;;
41719;SDS011;27405;53.316;-6.294;2022-08-21T06:17:12;18.65;;;2.97;;
41719;SDS011;27405;53.316;-6.294;2022-08-21T06:19:40;19.38;;;3.42;;
41719;SDS011;27405;53.316;-6.294;2022-08-21T06:22:06;24.23;;;3.15;;
41719;SDS011;27405;53.316;-6.294;2022-08-21T06:24:32;17.95;;;2.78;;
41719;SDS011;27405;53.316;-6.294;2022-08-21T06:27:03;18.05;;;3.03;;
41719;SDS011;27405;53.316;-6.294;2022-08-21T06:29:30;13.23;;;2.83;;
41719;SDS011;27405;53.316;-6.294;2022-08-21T06:31:57;20.58;;;3.30;;
41719;SDS011;27405;53.316;-6.294;2022-08-21T06:34:22;19.33;;;2.95;;
41719;SDS011;27405;53.316;-6.294;2022-08-21T06:36:48;22.30;;;2.67;;
41719;SDS011;27405;53.316;-6.294;2022-08-21T06:39:14;18.48;;;2.80;;
41719;SDS011;27405;53.316;-6.294;2022-08-21T06:41:40;18.67;;;3.08;;
41719;SDS011;27405;53.316;-6.294;2022-08-21T06:44:06;19.95;;;3.05;;
41719;SDS011;27405;53.316;-6.294;2022-08-21T06:46:32;18.25;;;3.03;;
41719;SDS011;27405;53.316;-6.294;2022-08-21T06:48:58;16.00;;;2.80;;
41719;SDS011;27405;53.316;-6.294;2022-08-21T06:51:25;14.13;;;2.90;;
41719;SDS011;27405;53.316;-6.294;2022-08-21T06:53:51;22.52;;;3.30;;
41719;SDS011;27405;53.316;-6.294;2022-08-21T06:56:18;18.98;;;3.08;;
41719;SDS011;27405;53.316;-6.294;2022-08-21T06:58:45;21.77;;;3.22;;
41719;SDS011;27405;53.316;-6.294;2022-08-21T07:01:11;18.35;;;3.13;;
41719;SDS011;27405;53.316;-6.294;2022-08-21T07:03:38;16.95;;;3.30;;
41719;SDS011;27405;53.316;-6.294;2022-08-21T07:06:06;19.17;;;3.10;;
41719;SDS011;27405;53.316;-6.294;2022-08-21T07:08:34;13.07;;;2.53;;
41719;SDS011;27405;53.316;-6.294;2022-08-21T07:11:03;19.63;;;2.90;;
41719;SDS011;27405;53.316;-6.294;2022-08-21T07:13:33;18.10;;;3.50;;
41719;SDS011;27405;53.316;-6.294;2022-08-21T07:15:59;19.48;;;3.38;;
41719;SDS011;27405;53.316;-6.294;2022-08-21T07:18:25;16.42;;;3.35;;
41719;SDS011;27405;53.316;-6.294;2022-08-21T07:20:51;18.48;;;2.90;;
41719;SDS011;27405;53.316;-6.294;2022-08-21T07:25:48;15.15;;;2.50;;
41719;SDS011;27405;53.316;-6.294;2022-08-21T07:28:14;13.57;;;2.47;;
41719;SDS011;27405;53.316;-6.294;2022-08-21T07:30:40;19.23;;;3.00;;
41719;SDS011;27405;53.316;-6.294;2022-08-21T07:33:06;15.50;;;2.88;;
41719;SDS011;27405;53.316;-6.294;2022-08-21T07:35:32;19.95;;;2.97;;
41719;SDS011;27405;53.316;-6.294;2022-08-21T07:37:59;17.08;;;2.95;;
41719;SDS011;27405;53.316;-6.294;2022-08-21T07:40:25;16.20;;;2.65;;
41719;SDS011;27405;53.316;-6.294;2022-08-21T07:42:51;18.88;;;2.65;;
41719;SDS011;27405;53.316;-6.294;2022-08-21T07:45:18;18.02;;;2.90;;
41719;SDS011;27405;53.316;-6.294;2022-08-21T07:47:46;17.40;;;2.80;;
41719;SDS011;27405;53.316;-6.294;2022-08-21T07:50:13;16.88;;;2.72;;
41719;SDS011;27405;53.316;-6.294;2022-08-21T07:52:40;17.05;;;2.75;;
41719;SDS011;27405;53.316;-6.294;2022-08-21T07:55:11;17.63;;;2.58;;
41719;SDS011;27405;53.316;-6.294;2022-08-21T07:57:39;17.90;;;2.97;;
41719;SDS011;27405;53.316;-6.294;2022-08-21T08:00:07;17.40;;;2.88;;
41719;SDS011;27405;53.316;-6.294;2022-08-21T08:02:35;10.70;;;2.45;;
41719;SDS011;27405;53.316;-6.294;2022-08-21T08:05:03;16.83;;;2.70;;
41719;SDS011;27405;53.316;-6.294;2022-08-21T08:07:30;12.23;;;2.40;;
41719;SDS011;27405;53.316;-6.294;2022-08-21T08:09:56;15.30;;;2.60;;
41719;SDS011;27405;53.316;-6.294;2022-08-21T08:12:23;18.45;;;3.20;;
41719;SDS011;27405;53.316;-6.294;2022-08-21T08:14:55;15.60;;;2.97;;
41719;SDS011;27405;53.316;-6.294;2022-08-21T08:17:22;18.55;;;2.75;;
41719;SDS011;27405;53.316;-6.294;2022-08-21T08:19:48;14.93;;;2.78;;
41719;SDS011;27405;53.316;-6.294;2022-08-21T08:22:15;15.75;;;2.28;;
41719;SDS011;27405;53.316;-6.294;2022-08-21T08:24:44;13.55;;;2.17;;
41719;SDS011;27405;53.316;-6.294;2022-08-21T08:27:11;15.50;;;2.88;;
41719;SDS011;27405;53.316;-6.294;2022-08-21T08:29:37;16.30;;;3.13;;
41719;SDS011;27405;53.316;-6.294;2022-08-21T08:32:04;15.73;;;2.53;;
41719;SDS011;27405;53.316;-6.294;2022-08-21T08:34:35;14.98;;;2.65;;
41719;SDS011;27405;53.316;-6.294;2022-08-21T08:37:02;15.07;;;2.50;;
41719;SDS011;27405;53.316;-6.294;2022-08-21T08:39:29;11.38;;;1.85;;
41719;SDS011;27405;53.316;-6.294;2022-08-21T08:42:37;9.13;;;2.00;;
41719;SDS011;27405;53.316;-6.294;2022-08-21T08:45:00;10.40;;;1.70;;
41719;SDS011;27405;53.316;-6.294;2022-08-21T08:52:46;12.32;;;2.35;;
41719;SDS011;27405;53.316;-6.294;2022-08-21T08:55:38;14.10;;;2.22;;
41719;SDS011;27405;53.316;-6.294;2022-08-21T08:58:06;12.60;;;2.00;;
41719;SDS011;27405;53.316;-6.294;2022-08-21T09:00:34;12.23;;;1.92;;
41719;SDS011;27405;53.316;-6.294;2022-08-21T09:03:01;12.65;;;1.80;;
41719;SDS011;27405;53.316;-6.294;2022-08-21T09:05:30;11.75;;;1.95;;
41719;SDS011;27405;53.316;-6.294;2022-08-21T09:11:25;8.50;;;1.70;;
41719;SDS011;27405;53.316;-6.294;2022-08-21T09:14:16;9.60;;;1.85;;
41719;SDS011;27405;53.316;-6.294;2022-08-21T09:22:19;11.57;;;1.42;;
41719;SDS011;27405;53.316;-6.294;2022-08-21T09:25:03;10.02;;;1.70;;
41719;SDS011;27405;53.316;-6.294;2022-08-21T09:27:37;9.00;;;1.77;;
41719;SDS011;27405;53.316;-6.294;2022-08-21T09:30:05;8.85;;;1.75;;
41719;SDS011;27405;53.316;-6.294;2022-08-21T09:32:35;8.82;;;2.05;;
41719;SDS011;27405;53.316;-6.294;2022-08-21T09:35:10;11.65;;;1.80;;
41719;SDS011;27405;53.316;-6.294;2022-08-21T09:37:55;7.72;;;1.60;;
41719;SDS011;27405;53.316;-6.294;2022-08-21T09:40:39;6.65;;;1.33;;
41719;SDS011;27405;53.316;-6.294;2022-08-21T09:45:36;4.93;;;1.30;;
41719;SDS011;27405;53.316;-6.294;2022-08-21T09:48:14;3.65;;;1.15;;
41719;SDS011;27405;53.316;-6.294;2022-08-21T09:50:44;5.43;;;1.42;;
41719;SDS011;27405;53.316;-6.294;2022-08-21T09:55:48;7.32;;;1.05;;
41719;SDS011;27405;53.316;-6.294;2022-08-21T09:58:38;5.38;;;0.90;;
41719;SDS011;27405;53.316;-6.294;2022-08-21T10:01:11;6.20;;;1.40;;
41719;SDS011;27405;53.316;-6.294;2022-08-21T10:07:06;6.50;;;1.15;;
41719;SDS011;27405;53.316;-6.294;2022-08-21T10:09:36;6.78;;;1.23;;
41719;SDS011;27405;53.316;-6.294;2022-08-21T10:18:04;3.95;;;1.10;;
41719;SDS011;27405;53.316;-6.294;2022-08-21T10:20:45;5.80;;;1.50;;
41719;SDS011;27405;53.316;-6.294;2022-08-21T10:28:55;6.85;;;1.60;;
41719;SDS011;27405;53.316;-6.294;2022-08-21T10:45:37;5.10;;;1.23;;
41719;SDS011;27405;53.316;-6.294;2022-08-21T10:48:06;4.53;;;1.30;;
41719;SDS011;27405;53.316;-6.294;2022-08-21T10:53:15;4.30;;;1.10;;
41719;SDS011;27405;53.316;-6.294;2022-08-21T11:01:18;7.78;;;1.55;;
41719;SDS011;27405;53.316;-6.294;2022-08-21T11:06:38;8.30;;;1.48;;
41719;SDS011;27405;53.316;-6.294;2022-08-21T11:09:13;9.93;;;1.90;;
41719;SDS011;27405;53.316;-6.294;2022-08-21T11:14:21;7.32;;;1.30;;
41719;SDS011;27405;53.316;-6.294;2022-08-21T11:17:10;8.25;;;1.33;;
41719;SDS011;27405;53.316;-6.294;2022-08-21T11:24:50;7.55;;;1.42;;
41719;SDS011;27405;53.316;-6.294;2022-08-21T11:30:15;7.53;;;1.20;;
41719;SDS011;27405;53.316;-6.294;2022-08-21T11:41:05;6.20;;;1.50;;
41719;SDS011;27405;53.316;-6.294;2022-08-21T11:43:45;4.45;;;1.33;;
41719;SDS011;27405;53.316;-6.294;2022-08-21T11:49:17;6.15;;;1.40;;
41719;SDS011;27405;53.316;-6.294;2022-08-21T11:51:48;7.85;;;1.55;;
41719;SDS011;27405;53.316;-6.294;2022-08-21T11:57:25;9.25;;;1.58;;
41719;SDS011;27405;53.316;-6.294;2022-08-21T12:02:35;5.72;;;1.38;;
41719;SDS011;27405;53.316;-6.294;2022-08-21T12:05:09;8.55;;;1.42;;
41719;SDS011;27405;53.316;-6.294;2022-08-21T12:07:47;5.18;;;1.23;;
41719;SDS011;27405;53.316;-6.294;2022-08-21T12:10:14;6.45;;;1.42;;
41719;SDS011;27405;53.316;-6.294;2022-08-21T12:12:46;5.10;;;1.30;;
41719;SDS011;27405;53.316;-6.294;2022-08-21T12:20:57;8.10;;;1.52;;
41719;SDS011;27405;53.316;-6.294;2022-08-21T12:23:29;8.70;;;1.60;;
41719;SDS011;27405;53.316;-6.294;2022-08-21T12:26:23;6.78;;;1.58;;
41719;SDS011;27405;53.316;-6.294;2022-08-21T12:29:02;8.27;;;1.65;;
41719;SDS011;27405;53.316;-6.294;2022-08-21T12:31:51;8.18;;;1.30;;
41719;SDS011;27405;53.316;-6.294;2022-08-21T12:40:10;5.85;;;1.35;;
41719;SDS011;27405;53.316;-6.294;2022-08-21T12:42:46;5.15;;;1.10;;
41719;SDS011;27405;53.316;-6.294;2022-08-21T12:45:31;7.85;;;1.70;;
41719;SDS011;27405;53.316;-6.294;2022-08-21T12:48:47;4.00;;;1.27;;
41719;SDS011;27405;53.316;-6.294;2022-08-21T12:51:09;7.10;;;1.38;;
41719;SDS011;27405;53.316;-6.294;2022-08-21T12:53:44;8.43;;;1.45;;
41719;SDS011;27405;53.316;-6.294;2022-08-21T12:56:22;5.35;;;1.30;;
41719;SDS011;27405;53.316;-6.294;2022-08-21T12:58:54;9.75;;;1.42;;
41719;SDS011;27405;53.316;-6.294;2022-08-21T13:01:32;6.03;;;1.45;;
41719;SDS011;27405;53.316;-6.294;2022-08-21T13:04:02;8.48;;;1.45;;
41719;SDS011;27405;53.316;-6.294;2022-08-21T13:06:37;5.97;;;1.30;;
41719;SDS011;27405;53.316;-6.294;2022-08-21T13:09:11;10.23;;;1.98;;
41719;SDS011;27405;53.316;-6.294;2022-08-21T13:11:39;7.47;;;1.50;;
41719;SDS011;27405;53.316;-6.294;2022-08-21T13:14:14;7.72;;;1.73;;
41719;SDS011;27405;53.316;-6.294;2022-08-21T13:16:52;7.28;;;1.45;;
41719;SDS011;27405;53.316;-6.294;2022-08-21T13:19:23;8.25;;;1.30;;
41719;SDS011;27405;53.316;-6.294;2022-08-21T13:21:50;6.00;;;1.55;;
41719;SDS011;27405;53.316;-6.294;2022-08-21T13:24:21;10.73;;;1.70;;
41719;SDS011;27405;53.316;-6.294;2022-08-21T13:26:52;10.90;;;1.92;;
41719;SDS011;27405;53.316;-6.294;2022-08-21T13:29:20;6.13;;;1.50;;
41719;SDS011;27405;53.316;-6.294;2022-08-21T13:31:50;4.85;;;1.27;;
41719;SDS011;27405;53.316;-6.294;2022-08-21T13:34:22;9.40;;;1.80;;
41719;SDS011;27405;53.316;-6.294;2022-08-21T13:36:56;9.48;;;2.00;;
41719;SDS011;27405;53.316;-6.294;2022-08-21T13:39:25;9.13;;;1.88;;
41719;SDS011;27405;53.316;-6.294;2022-08-21T13:41:54;6.80;;;1.25;;
41719;SDS011;27405;53.316;-6.294;2022-08-21T13:44:23;10.82;;;1.88;;
41719;SDS011;27405;53.316;-6.294;2022-08-21T13:47:00;7.00;;;1.60;;
41719;SDS011;27405;53.316;-6.294;2022-08-21T13:49:30;7.82;;;1.70;;
41719;SDS011;27405;53.316;-6.294;2022-08-21T13:52:16;9.43;;;2.10;;
41719;SDS011;27405;53.316;-6.294;2022-08-21T13:54:51;10.15;;;1.63;;
41719;SDS011;27405;53.316;-6.294;2022-08-21T13:57:25;7.43;;;1.77;;
41719;SDS011;27405;53.316;-6.294;2022-08-21T13:59:51;7.55;;;1.80;;
41719;SDS011;27405;53.316;-6.294;2022-08-21T14:02:22;11.38;;;2.67;;
41719;SDS011;27405;53.316;-6.294;2022-08-21T14:04:58;12.75;;;3.22;;
41719;SDS011;27405;53.316;-6.294;2022-08-21T14:07:29;9.50;;;2.15;;
41719;SDS011;27405;53.316;-6.294;2022-08-21T14:10:02;10.23;;;1.70;;
41719;SDS011;27405;53.316;-6.294;2022-08-21T14:13:18;7.97;;;1.88;;
41719;SDS011;27405;53.316;-6.294;2022-08-21T14:15:31;8.88;;;1.48;;
41719;SDS011;27405;53.316;-6.294;2022-08-21T14:20:39;7.38;;;1.95;;
41719;SDS011;27405;53.316;-6.294;2022-08-21T14:23:05;8.70;;;1.92;;
41719;SDS011;27405;53.316;-6.294;2022-08-21T14:25:41;7.95;;;1.65;;
41719;SDS011;27405;53.316;-6.294;2022-08-21T14:28:28;7.53;;;1.45;;
41719;SDS011;27405;53.316;-6.294;2022-08-21T14:31:17;6.03;;;1.38;;
41719;SDS011;27405;53.316;-6.294;2022-08-21T14:33:45;10.20;;;2.05;;
41719;SDS011;27405;53.316;-6.294;2022-08-21T14:36:12;9.38;;;1.70;;
41719;SDS011;27405;53.316;-6.294;2022-08-21T14:38:39;6.25;;;1.45;;
41719;SDS011;27405;53.316;-6.294;2022-08-21T14:41:16;5.72;;;1.30;;
41719;SDS011;27405;53.316;-6.294;2022-08-21T14:43:51;5.35;;;1.67;;
41719;SDS011;27405;53.316;-6.294;2022-08-21T14:46:27;4.93;;;1.38;;
41719;SDS011;27405;53.316;-6.294;2022-08-21T14:48:55;9.57;;;1.75;;
41719;SDS011;27405;53.316;-6.294;2022-08-21T14:51:21;7.72;;;1.48;;
41719;SDS011;27405;53.316;-6.294;2022-08-21T14:53:47;5.35;;;1.40;;
41719;SDS011;27405;53.316;-6.294;2022-08-21T14:56:13;5.75;;;1.45;;
41719;SDS011;27405;53.316;-6.294;2022-08-21T14:58:44;7.18;;;1.27;;
41719;SDS011;27405;53.316;-6.294;2022-08-21T15:01:15;8.60;;;1.45;;
41719;SDS011;27405;53.316;-6.294;2022-08-21T15:03:43;5.82;;;1.20;;
41719;SDS011;27405;53.316;-6.294;2022-08-21T15:06:10;8.25;;;1.60;;
41719;SDS011;27405;53.316;-6.294;2022-08-21T15:08:36;6.80;;;1.50;;
41719;SDS011;27405;53.316;-6.294;2022-08-21T15:11:03;5.20;;;1.35;;
41719;SDS011;27405;53.316;-6.294;2022-08-21T15:13:30;5.43;;;1.45;;
41719;SDS011;27405;53.316;-6.294;2022-08-21T15:15:57;5.88;;;1.73;;
41719;SDS011;27405;53.316;-6.294;2022-08-21T15:18:24;8.93;;;1.65;;
41719;SDS011;27405;53.316;-6.294;2022-08-21T15:20:51;6.50;;;1.43;;
41719;SDS011;27405;53.316;-6.294;2022-08-21T15:23:18;6.85;;;1.20;;
41719;SDS011;27405;53.316;-6.294;2022-08-21T15:25:45;6.10;;;1.23;;
41719;SDS011;27405;53.316;-6.294;2022-08-21T15:28:13;6.32;;;1.20;;
41719;SDS011;27405;53.316;-6.294;2022-08-21T15:30:41;5.55;;;1.30;;
41719;SDS011;27405;53.316;-6.294;2022-08-21T15:33:09;5.53;;;1.50;;
41719;SDS011;27405;53.316;-6.294;2022-08-21T15:35:37;6.32;;;1.40;;
41719;SDS011;27405;53.316;-6.294;2022-08-21T15:38:04;8.23;;;2.05;;
41719;SDS011;27405;53.316;-6.294;2022-08-21T15:40:30;4.28;;;1.00;;
41719;SDS011;27405;53.316;-6.294;2022-08-21T15:43:00;4.75;;;1.20;;
41719;SDS011;27405;53.316;-6.294;2022-08-21T15:45:28;7.22;;;1.65;;
41719;SDS011;27405;53.316;-6.294;2022-08-21T15:47:55;6.38;;;1.40;;
41719;SDS011;27405;53.316;-6.294;2022-08-21T15:50:22;7.68;;;1.73;;
41719;SDS011;27405;53.316;-6.294;2022-08-21T15:52:48;7.00;;;1.75;;
41719;SDS011;27405;53.316;-6.294;2022-08-21T15:55:15;6.95;;;1.40;;
41719;SDS011;27405;53.316;-6.294;2022-08-21T15:57:45;8.55;;;2.00;;
41719;SDS011;27405;53.316;-6.294;2022-08-21T16:00:14;6.95;;;2.38;;
41719;SDS011;27405;53.316;-6.294;2022-08-21T16:02:44;16.27;;;2.47;;
41719;SDS011;27405;53.316;-6.294;2022-08-21T16:05:13;10.20;;;1.85;;
41719;SDS011;27405;53.316;-6.294;2022-08-21T16:07:41;10.75;;;2.03;;
41719;SDS011;27405;53.316;-6.294;2022-08-21T16:10:08;5.47;;;1.83;;
41719;SDS011;27405;53.316;-6.294;2022-08-21T16:12:36;7.47;;;3.20;;
41719;SDS011;27405;53.316;-6.294;2022-08-21T16:15:05;7.88;;;2.22;;
41719;SDS011;27405;53.316;-6.294;2022-08-21T16:17:34;9.00;;;1.58;;
41719;SDS011;27405;53.316;-6.294;2022-08-21T16:20:03;8.07;;;1.63;;
41719;SDS011;27405;53.316;-6.294;2022-08-21T16:22:32;6.68;;;1.63;;
41719;SDS011;27405;53.316;-6.294;2022-08-21T16:24:58;7.65;;;1.58;;
41719;SDS011;27405;53.316;-6.294;2022-08-21T16:27:24;9.88;;;1.60;;
41719;SDS011;27405;53.316;-6.294;2022-08-21T16:29:50;6.68;;;1.83;;